Time;durP1;ratioP1;P1;durP2;ratioP2;P2;SDS_P1;SDS_P2;PMS_P1;PMS_P2;Temp;Humidity;BMP_temperature;BMP_pressure;BME280_temperature;BME280_humidity;BME280_pressure;Samples;Min_cycle;Max_cycle;Signal;HPM_P1;HPM_P2
2024/03/01 00:01:15;;;;;;;70.40;41.50;;;;;;;10.67;73.38;98758.02;232070;204;138816;-52
2024/03/01 00:06:21;;;;;;;68.40;41.50;;;;;;;10.63;73.20;98755.59;232216;198;138461;-55
2024/03/01 00:11:25;;;;;;;69.10;42.80;;;;;;;10.64;73.10;98744.89;232049;204;153304;-51
2024/03/01 00:16:28;;;;;;;72.10;43.40;;;;;;;10.62;73.22;98746.63;231807;198;139568;-54
2024/03/01 00:21:32;;;;;;;73.10;43.30;;;;;;;10.61;73.35;98749.02;231890;204;138354;-52
2024/03/01 00:26:35;;;;;;;76.00;44.60;;;;;;;10.55;73.26;98743.55;231984;204;153368;-56
2024/03/01 00:31:39;;;;;;;71.40;42.40;;;;;;;10.48;73.08;98730.17;231855;201;139131;-52
2024/03/01 00:36:42;;;;;;;72.60;44.10;;;;;;;10.38;73.15;98721.27;232373;200;138286;-54
2024/03/01 00:41:46;;;;;;;73.20;42.70;;;;;;;10.32;73.54;98710.31;232140;204;153987;-54
2024/03/01 00:46:49;;;;;;;67.60;40.60;;;;;;;10.28;73.93;98709.73;232066;200;141258;-55
2024/03/01 00:51:52;;;;;;;63.70;40.10;;;;;;;10.28;74.35;98702.77;231982;198;138894;-53
2024/03/01 00:56:56;;;;;;;69.50;42.30;;;;;;;10.35;74.50;98689.70;232058;201;153511;-55
2024/03/01 01:01:59;;;;;;;71.60;42.30;;;;;;;10.43;74.54;98691.52;232148;201;138133;-53
2024/03/01 01:07:02;;;;;;;71.60;41.80;;;;;;;10.46;74.38;98687.59;232100;201;138105;-52
2024/03/01 01:12:06;;;;;;;68.10;42.90;;;;;;;10.47;74.49;98679.20;232144;204;153867;-54
2024/03/01 01:17:09;;;;;;;71.70;42.90;;;;;;;10.51;74.69;98668.43;232298;204;140399;-54
2024/03/01 01:22:13;;;;;;;72.30;43.20;;;;;;;10.54;74.63;98661.65;232163;201;137623;-54
2024/03/01 01:27:24;;;;;;;74.50;42.50;;;;;;;10.54;74.56;98663.27;232249;198;156002;-52
2024/03/01 01:32:27;;;;;;;66.60;39.80;;;;;;;10.51;74.59;98657.27;232298;201;138194;-53
2024/03/01 01:37:31;;;;;;;65.70;39.90;;;;;;;10.50;74.58;98652.70;232212;201;139815;-53
2024/03/01 01:42:34;;;;;;;62.70;40.90;;;;;;;10.53;74.42;98645.77;232104;204;153866;-52
2024/03/01 01:47:37;;;;;;;70.30;41.90;;;;;;;10.56;74.24;98634.59;232312;198;138401;-53
2024/03/01 01:52:42;;;;;;;67.70;41.80;;;;;;;10.55;74.09;98630.38;232250;198;137507;-51
2024/03/01 01:57:48;;;;;;;64.80;40.80;;;;;;;10.54;73.87;98632.42;232335;204;153280;-51
2024/03/01 02:02:51;;;;;;;;;;;;;;;10.47;73.54;98623.69;232023;201;138054;-52
2024/03/01 02:07:56;;;;;;;65.20;40.60;;;;;;;10.38;73.55;98620.38;232287;201;138862;-52
2024/03/01 02:13:02;;;;;;;63.80;40.50;;;;;;;10.30;73.64;98615.62;232251;204;153214;-51
2024/03/01 02:18:06;;;;;;;66.80;41.20;;;;;;;10.20;73.70;98610.40;232268;204;138166;-52
2024/03/01 02:23:28;;;;;;;61.50;38.10;;;;;;;10.12;73.74;98604.70;232245;204;137996;-53
2024/03/01 02:28:31;;;;;;;63.60;38.60;;;;;;;10.08;73.56;98602.48;232068;204;153733;-52
2024/03/01 02:33:35;;;;;;;60.20;38.10;;;;;;;10.08;73.55;98598.25;232160;201;236991;-52
2024/03/01 02:38:38;;;;;;;62.60;38.60;;;;;;;10.05;73.36;98596.67;232352;201;138382;-54
2024/03/01 02:43:42;;;;;;;60.50;39.10;;;;;;;10.00;73.36;98594.55;232289;204;153883;-52
2024/03/01 02:48:45;;;;;;;58.90;38.80;;;;;;;9.95;73.53;98590.98;232376;201;138364;-52
2024/03/01 02:53:48;;;;;;;62.10;38.60;;;;;;;9.89;73.43;98583.39;232264;204;138838;-55
2024/03/01 02:58:51;;;;;;;58.40;37.40;;;;;;;9.81;73.20;98575.27;232357;201;153137;-53
2024/03/01 03:03:55;;;;;;;60.20;37.70;;;;;;;9.71;73.23;98570.40;232067;204;138546;-52
2024/03/01 03:08:58;;;;;;;59.50;38.10;;;;;;;9.67;73.43;98569.26;232353;197;138504;-52
2024/03/01 03:14:05;;;;;;;54.90;35.60;;;;;;;9.61;73.32;98559.74;232354;201;153745;-51
2024/03/01 03:19:08;;;;;;;60.40;37.60;;;;;;;9.58;73.68;98565.25;232406;198;138008;-48
2024/03/01 03:24:12;;;;;;;62.30;38.00;;;;;;;9.60;73.70;98556.45;232198;197;138339;-55
2024/03/01 03:29:16;;;;;;;60.90;38.20;;;;;;;9.60;73.63;98557.52;232250;196;156313;-53
2024/03/01 03:34:19;;;;;;;61.00;38.20;;;;;;;9.57;73.37;98559.84;231479;201;138682;-51
2024/03/01 03:39:22;;;;;;;65.80;40.00;;;;;;;9.53;73.19;98565.23;231920;204;138171;-53
2024/03/01 03:44:25;;;;;;;65.10;37.50;;;;;;;9.47;73.25;98563.67;232335;197;154656;-52
2024/03/01 03:49:29;;;;;;;62.10;37.90;;;;;;;9.41;73.09;98565.83;232448;201;138204;-54
2024/03/01 03:54:37;;;;;;;62.50;38.20;;;;;;;9.31;72.95;98563.30;232247;200;138925;-51
2024/03/01 03:59:40;;;;;;;64.20;39.30;;;;;;;9.22;73.26;98554.10;232066;200;153883;-51
2024/03/01 04:04:44;;;;;;;58.20;35.10;;;;;;;9.19;73.19;98552.39;232000;204;138421;-54
2024/03/01 04:09:47;;;;;;;57.20;35.60;;;;;;;9.15;73.10;98557.60;232036;198;138397;-49
2024/03/01 04:14:50;;;;;;;57.20;37.10;;;;;;;9.14;73.02;98557.11;232078;204;153308;-51
2024/03/01 04:19:53;;;;;;;57.40;37.60;;;;;;;9.17;73.01;98561.88;232310;204;138658;-53
2024/03/01 04:24:57;;;;;;;57.90;37.90;;;;;;;9.18;72.99;98563.58;232359;204;137607;-54
2024/03/01 04:30:01;;;;;;;60.40;37.90;;;;;;;9.15;72.98;98568.59;232159;198;155276;-49
2024/03/01 04:35:05;;;;;;;55.20;37.90;;;;;;;9.13;73.19;98559.81;232139;196;138618;-53
2024/03/01 04:40:09;;;;;;;62.50;39.80;;;;;;;9.12;73.45;98572.80;232331;201;138898;-54
2024/03/01 04:45:13;;;;;;;61.70;40.60;;;;;;;9.10;73.92;98571.55;232225;201;153349;-54
2024/03/01 04:50:16;;;;;;;66.80;40.60;;;;;;;9.14;74.70;98577.45;232239;201;138353;-53
2024/03/01 04:55:19;;;;;;;57.90;37.40;;;;;;;9.25;74.99;98574.98;232250;204;138804;-51
2024/03/01 05:00:24;;;;;;;62.40;39.70;;;;;;;9.40;74.75;98563.73;232240;204;153442;-54
2024/03/01 05:05:27;;;;;;;69.50;44.20;;;;;;;9.51;74.77;98565.17;232302;198;138284;-53
2024/03/01 05:10:30;;;;;;;67.40;43.50;;;;;;;9.58;74.67;98564.34;232271;197;138343;-58
2024/03/01 05:15:33;;;;;;;62.10;40.20;;;;;;;9.62;74.49;98560.40;231987;205;153203;-54
2024/03/01 05:20:38;;;;;;;57.90;40.10;;;;;;;9.61;74.16;98557.62;232099;198;137771;-53
2024/03/01 05:25:43;;;;;;;372.10;295.80;;;;;;;9.61;74.55;98559.71;232465;196;143241;-55
2024/03/01 05:30:47;;;;;;;153.00;104.10;;;;;;;9.67;74.51;98560.23;232212;201;153143;-55
2024/03/01 05:35:54;;;;;;;57.40;37.80;;;;;;;9.70;74.21;98551.31;232270;204;138690;-52
2024/03/01 05:40:58;;;;;;;199.10;136.10;;;;;;;9.71;73.90;98554.63;232247;198;137953;-53
2024/03/01 05:46:13;;;;;;;59.20;41.20;;;;;;;9.76;73.91;98555.94;232145;198;154292;-52
2024/03/01 05:51:17;;;;;;;53.90;39.80;;;;;;;9.78;72.78;98557.95;231982;201;137662;-54
2024/03/01 05:56:20;;;;;;;62.10;41.60;;;;;;;9.70;72.62;98568.02;232199;201;138210;-55
2024/03/01 06:01:23;;;;;;;58.20;39.90;;;;;;;9.63;72.58;98587.23;232413;198;153293;-53
2024/03/01 06:06:27;;;;;;;64.70;41.40;;;;;;;9.55;72.65;98590.05;232198;201;138217;-55
2024/03/01 06:11:30;;;;;;;57.90;40.70;;;;;;;9.47;72.61;98593.39;232319;204;137601;-55
2024/03/01 06:16:33;;;;;;;62.30;41.50;;;;;;;9.39;72.93;98581.70;232311;204;153575;-53
2024/03/01 06:21:37;;;;;;;591.70;398.80;;;;;;;9.38;73.63;98581.79;232085;198;137391;-53
2024/03/01 06:26:40;;;;;;;64.30;43.10;;;;;;;9.50;74.05;98581.52;232331;201;138588;-51
2024/03/01 06:31:43;;;;;;;164.70;119.20;;;;;;;9.62;74.01;98568.86;232341;201;153443;-55
2024/03/01 06:36:47;;;;;;;97.80;68.10;;;;;;;9.72;73.88;98561.81;232315;205;138437;-55
2024/03/01 06:41:50;;;;;;;62.80;42.20;;;;;;;9.80;73.84;98568.75;232220;204;137942;-53
2024/03/01 06:46:54;;;;;;;62.10;41.90;;;;;;;9.81;73.52;98569.42;232032;201;155699;-55
2024/03/01 06:51:57;;;;;;;62.40;41.70;;;;;;;9.84;73.41;98575.08;232237;201;138285;-54
2024/03/01 06:57:01;;;;;;;62.80;43.40;;;;;;;9.84;73.41;98569.56;232326;204;138599;-55
2024/03/01 07:02:04;;;;;;;66.40;42.00;;;;;;;9.81;73.47;98567.41;232136;201;154475;-54
2024/03/01 07:07:08;;;;;;;55.90;38.10;;;;;;;9.81;73.77;98563.56;232274;196;138004;-56
2024/03/01 07:12:11;;;;;;;60.90;38.90;;;;;;;9.86;73.71;98552.02;232136;198;138752;-55
2024/03/01 07:17:17;;;;;;;59.20;40.60;;;;;;;9.99;73.47;98557.23;232033;204;153792;-54
2024/03/01 07:22:20;;;;;;;61.50;41.60;;;;;;;10.06;73.18;98569.15;232018;201;137915;-57
2024/03/01 07:27:23;;;;;;;66.50;47.30;;;;;;;10.16;73.58;98561.58;231813;204;138616;-57
2024/03/01 07:32:27;;;;;;;64.60;40.40;;;;;;;10.27;72.91;98571.48;232281;204;153634;-57
2024/03/01 07:37:30;;;;;;;60.20;38.80;;;;;;;10.28;72.91;98565.21;232388;204;137780;-56
2024/03/01 07:42:34;;;;;;;59.10;39.10;;;;;;;10.36;72.93;98564.81;232312;200;142490;-57
2024/03/01 07:47:41;;;;;;;58.60;38.30;;;;;;;10.40;72.78;98567.77;232333;204;153678;-56
2024/03/01 07:52:44;;;;;;;51.60;36.10;;;;;;;10.44;72.88;98563.73;232028;203;139157;-57
2024/03/01 07:57:48;;;;;;;54.00;34.90;;;;;;;10.55;72.84;98562.63;232343;203;138561;-56
2024/03/01 08:03:07;;;;;;;535.20;407.40;;;;;;;10.69;72.50;98562.71;232319;196;153130;-55
2024/03/01 08:08:21;;;;;;;61.90;39.30;;;;;;;10.85;72.47;98552.71;232350;203;138965;-57
2024/03/01 08:13:24;;;;;;;60.00;37.10;;;;;;;10.92;71.81;98552.24;232410;204;137803;-57
2024/03/01 08:18:27;;;;;;;54.00;36.20;;;;;;;10.98;71.53;98545.40;232182;204;153265;-57
2024/03/01 08:23:38;;;;;;;59.40;37.40;;;;;;;10.98;71.38;98537.45;232258;197;137526;-58
2024/03/01 08:28:44;;;;;;;59.50;36.90;;;;;;;10.99;71.24;98538.55;232034;204;138690;-57
2024/03/01 08:33:48;;;;;;;58.20;36.40;;;;;;;11.04;71.39;98542.14;231945;204;154140;-56
2024/03/01 08:39:03;;;;;;;280.30;223.90;;;;;;;11.08;71.32;98525.98;232165;196;138084;-57
2024/03/01 08:44:29;;;;;;;;;;;;;;;11.18;71.64;98523.20;232273;204;138908;-57
2024/03/01 08:49:45;;;;;;;51.80;34.10;;;;;;;11.28;71.27;98544.63;232300;204;154412;-58
2024/03/01 08:54:51;;;;;;;53.20;34.20;;;;;;;11.42;70.89;98533.86;232201;201;138369;-57
2024/03/01 08:59:55;;;;;;;53.60;34.60;;;;;;;11.56;70.48;98528.19;231711;197;139246;-57
2024/03/01 09:04:58;;;;;;;52.60;35.00;;;;;;;11.63;70.18;98522.35;232221;204;153266;-57
2024/03/01 09:10:04;;;;;;;54.30;34.60;;;;;;;11.68;69.82;98528.90;232349;204;137752;-55
2024/03/01 09:15:12;;;;;;;48.70;34.20;;;;;;;11.73;69.73;98529.58;232099;204;138716;-58
2024/03/01 09:20:27;;;;;;;55.90;34.00;;;;;;;11.74;69.47;98532.85;232443;204;153443;-57
2024/03/01 09:25:59;;;;;;;545.30;410.60;;;;;;;11.79;69.78;98533.04;232322;204;139302;-57
2024/03/01 09:31:08;;;;;;;56.60;37.80;;;;;;;11.94;69.91;98522.19;232283;204;139426;-57
2024/03/01 09:36:17;;;;;;;51.90;33.80;;;;;;;12.04;69.36;98528.84;232254;201;153811;-57
2024/03/01 09:41:26;;;;;;;54.30;35.30;;;;;;;12.11;68.76;98540.06;232025;204;139138;-57
2024/03/01 09:46:43;;;;;;;53.10;31.70;;;;;;;12.16;68.85;98529.08;232287;204;140891;-56
2024/03/01 09:52:17;;;;;;;50.50;32.40;;;;;;;12.23;68.74;98533.30;232299;204;153230;-57
2024/03/01 09:57:43;;;;;;;52.20;34.40;;;;;;;12.39;68.57;98531.36;232075;200;138472;-60
2024/03/01 10:02:53;;;;;;;49.50;34.10;;;;;;;12.49;68.05;98529.31;232424;203;138160;-58
2024/03/01 10:08:03;;;;;;;250.90;203.30;;;;;;;12.49;67.69;98535.57;232000;197;152951;-57
2024/03/01 10:13:18;;;;;;;203.40;143.80;;;;;;;12.55;68.20;98528.14;232261;204;157401;-57
2024/03/01 10:18:50;;;;;;;54.30;37.00;;;;;;;12.64;67.93;98501.11;232234;204;138170;-56
2024/03/01 10:24:19;;;;;;;54.40;34.30;;;;;;;12.64;67.71;98497.71;232257;204;153370;-57
2024/03/01 10:29:55;;;;;;;248.10;166.70;;;;;;;12.64;67.58;98504.31;232047;196;137754;-58
2024/03/01 10:34:59;;;;;;;;;;;;;;;12.69;67.93;98505.89;232255;204;138096;-56
2024/03/01 10:40:20;;;;;;;53.40;34.00;;;;;;;12.77;67.72;98509.86;232299;204;154157;-56
2024/03/01 10:45:34;;;;;;;55.30;35.70;;;;;;;12.76;67.47;98516.48;232306;204;139318;-56
2024/03/01 10:50:46;;;;;;;54.20;34.50;;;;;;;12.79;67.56;98499.52;232286;201;138283;-56
2024/03/01 10:55:57;;;;;;;51.60;32.30;;;;;;;12.79;67.41;98496.67;232349;201;154038;-56
2024/03/01 11:01:21;;;;;;;54.10;33.90;;;;;;;12.87;67.29;98495.77;231980;197;139340;-57
2024/03/01 11:06:34;;;;;;;52.30;35.60;;;;;;;12.98;67.26;98489.81;232057;198;137888;-56
2024/03/01 11:11:57;;;;;;;519.50;381.10;;;;;;;13.14;67.59;98476.63;231941;197;153816;-57
2024/03/01 11:17:03;;;;;;;62.80;40.50;;;;;;;13.38;67.81;98463.06;231989;201;139122;-55
2024/03/01 11:22:33;;;;;;;61.20;38.10;;;;;;;13.66;67.42;98437.41;232189;197;138192;-58
2024/03/01 11:27:50;;;;;;;59.80;37.00;;;;;;;13.92;66.67;98435.73;232248;201;153858;-58
2024/03/01 11:33:01;;;;;;;56.90;36.40;;;;;;;14.20;66.12;98444.00;232206;198;138127;-55
2024/03/01 11:38:45;;;;;;;55.60;35.80;;;;;;;14.44;65.73;98441.77;232298;201;151433;-57
2024/03/01 11:44:32;;;;;;;55.00;36.70;;;;;;;14.77;64.79;98442.82;232205;197;153937;-58
2024/03/01 11:49:53;;;;;;;56.10;36.30;;;;;;;14.96;64.30;98423.64;232164;199;138189;-58
2024/03/01 11:55:12;;;;;;;55.40;35.40;;;;;;;14.97;63.61;98425.09;232153;204;138791;-58
2024/03/01 12:00:19;;;;;;;520.60;395.40;;;;;;;14.96;63.30;98421.43;231594;197;154990;-58
2024/03/01 12:06:01;;;;;;;93.50;61.30;;;;;;;14.92;63.73;98424.67;232127;204;138211;-59
2024/03/01 12:11:24;;;;;;;53.60;36.20;;;;;;;14.94;63.30;98408.21;232074;198;138359;-57
2024/03/01 12:16:37;;;;;;;52.00;35.10;;;;;;;14.97;63.05;98407.39;231855;197;154100;-58
2024/03/01 12:21:47;;;;;;;49.80;32.90;;;;;;;15.01;62.87;98409.38;232294;201;138747;-57
2024/03/01 12:27:24;;;;;;;51.70;34.10;;;;;;;14.93;62.64;98402.40;232328;201;138549;-57
2024/03/01 12:32:46;;;;;;;56.40;34.40;;;;;;;14.85;62.68;98395.10;232050;204;154763;-58
2024/03/01 12:38:22;;;;;;;54.00;34.20;;;;;;;14.78;62.88;98396.27;232320;204;137907;-59
2024/03/01 12:43:46;;;;;;;56.40;34.60;;;;;;;14.77;62.79;98402.61;232287;198;138112;-57
2024/03/01 12:49:09;;;;;;;58.70;35.80;;;;;;;14.73;62.75;98409.59;232233;200;153063;-56
2024/03/01 12:54:23;;;;;;;53.40;36.10;;;;;;;14.69;62.83;98416.77;232137;201;141987;-57
2024/03/01 12:59:37;;;;;;;56.40;36.80;;;;;;;14.59;63.09;98409.02;232220;197;139180;-56
2024/03/01 13:05:04;;;;;;;;;;;;;;;14.54;63.38;98404.18;232353;201;153417;-58
2024/03/01 13:10:14;;;;;;;54.20;36.80;;;;;;;14.48;63.43;98396.05;232208;204;136969;-56
2024/03/01 13:15:19;;;;;;;56.40;37.60;;;;;;;14.43;63.60;98387.33;232357;201;138801;-55
2024/03/01 13:20:30;;;;;;;53.20;36.00;;;;;;;14.42;63.75;98383.73;232248;198;154490;-56
2024/03/01 13:26:05;;;;;;;51.00;34.80;;;;;;;14.41;64.02;98381.52;232253;201;137464;-57
2024/03/01 13:31:22;;;;;;;55.60;34.70;;;;;;;14.36;63.73;98394.22;231917;204;138975;-57
2024/03/01 13:36:30;;;;;;;49.60;35.60;;;;;;;14.28;63.57;98399.95;231598;204;153106;-56
2024/03/01 13:41:56;;;;;;;50.50;34.40;;;;;;;14.15;63.80;98389.30;232247;198;138224;-56
2024/03/01 13:47:11;;;;;;;54.10;35.90;;;;;;;14.03;64.34;98402.36;231832;204;138688;-57
2024/03/01 13:52:14;;;;;;;54.50;36.30;;;;;;;13.98;64.76;98406.01;232352;204;153970;-56
2024/03/01 13:57:23;;;;;;;54.10;34.90;;;;;;;13.98;64.81;98410.29;232408;204;137866;-57
2024/03/01 14:02:27;;;;;;;52.50;32.50;;;;;;;13.99;64.90;98401.81;232390;204;138168;-55
2024/03/01 14:07:30;;;;;;;53.80;34.90;;;;;;;14.06;64.96;98395.08;232395;204;153127;-56
2024/03/01 14:12:34;;;;;;;53.00;35.50;;;;;;;14.12;64.75;98408.09;232038;201;138400;-52
2024/03/01 14:17:39;;;;;;;57.40;35.80;;;;;;;14.13;64.58;98407.66;232361;204;147451;-56
2024/03/01 14:22:44;;;;;;;55.90;35.20;;;;;;;14.09;64.75;98412.52;232361;204;153354;-56
2024/03/01 14:27:50;;;;;;;55.30;36.70;;;;;;;14.01;64.85;98400.53;232286;201;138294;-56
2024/03/01 14:33:10;;;;;;;51.80;35.00;;;;;;;13.97;64.94;98392.68;232199;197;138449;-57
2024/03/01 14:38:15;;;;;;;55.00;36.20;;;;;;;13.89;64.95;98389.04;232159;204;154078;-57
2024/03/01 14:43:18;;;;;;;56.70;36.60;;;;;;;13.81;65.37;98390.70;232203;204;138376;-57
2024/03/01 14:48:30;;;;;;;56.00;36.20;;;;;;;13.74;65.70;98388.44;232300;204;141480;-56
2024/03/01 14:53:45;;;;;;;54.10;35.50;;;;;;;13.66;66.00;98388.36;232282;201;153301;-56
2024/03/01 14:58:49;;;;;;;56.20;35.80;;;;;;;13.60;66.17;98391.21;232301;204;138261;-57
2024/03/01 15:03:53;;;;;;;54.10;36.80;;;;;;;13.51;66.52;98389.66;232197;200;137404;-57
2024/03/01 15:09:02;;;;;;;50.60;33.00;;;;;;;13.45;66.72;98392.28;232325;204;153185;-56
2024/03/01 15:14:15;;;;;;;53.80;34.00;;;;;;;13.43;66.96;98393.15;232350;204;141808;-56
2024/03/01 15:19:18;;;;;;;55.60;34.90;;;;;;;13.49;67.01;98384.30;232220;198;138668;-56
2024/03/01 15:24:23;;;;;;;54.30;35.20;;;;;;;13.51;66.85;98384.64;232236;200;154393;-57
2024/03/01 15:29:26;;;;;;;54.00;35.10;;;;;;;13.49;66.78;98383.03;232107;202;137591;-58
2024/03/01 15:34:29;;;;;;;57.30;35.90;;;;;;;13.47;66.81;98384.23;231974;204;138978;-58
2024/03/01 15:39:32;;;;;;;58.20;35.20;;;;;;;13.41;66.83;98382.61;232331;204;153816;-56
2024/03/01 15:44:35;;;;;;;52.30;34.20;;;;;;;13.37;66.74;98386.69;232305;200;138753;-57
2024/03/01 15:49:40;;;;;;;55.20;35.60;;;;;;;13.31;67.00;98381.86;232397;201;138288;-57
2024/03/01 15:54:44;;;;;;;52.70;35.20;;;;;;;13.27;67.31;98387.59;232047;197;153348;-58
2024/03/01 15:59:47;;;;;;;52.30;34.40;;;;;;;13.17;67.56;98391.77;232133;204;139172;-57
2024/03/01 16:04:50;;;;;;;85.70;55.40;;;;;;;13.13;68.16;98394.60;232126;197;138852;-58
2024/03/01 16:09:54;;;;;;;51.60;32.10;;;;;;;13.08;68.06;98392.33;232236;201;153100;-59
2024/03/01 16:15:00;;;;;;;47.30;32.50;;;;;;;13.00;68.02;98397.78;232257;204;139136;-58
2024/03/01 16:20:07;;;;;;;52.00;33.20;;;;;;;12.98;67.95;98399.67;232220;201;138147;-57
2024/03/01 16:25:12;;;;;;;48.60;32.60;;;;;;;13.00;67.72;98404.50;232017;198;153287;-57
2024/03/01 16:30:27;;;;;;;53.40;33.60;;;;;;;12.99;67.59;98411.35;232154;204;138606;-58
2024/03/01 16:35:39;;;;;;;50.40;33.10;;;;;;;12.94;67.37;98412.90;232211;204;137494;-58
2024/03/01 16:40:43;;;;;;;53.20;33.30;;;;;;;12.88;67.23;98416.89;232210;202;153051;-58
2024/03/01 16:45:46;;;;;;;52.00;33.40;;;;;;;12.82;66.99;98417.81;232210;196;139142;-57
2024/03/01 16:50:50;;;;;;;53.90;33.30;;;;;;;12.76;66.83;98420.05;232172;204;137765;-58
2024/03/01 16:56:01;;;;;;;56.10;33.30;;;;;;;12.68;66.96;98420.35;232376;198;153258;-57
2024/03/01 17:01:04;;;;;;;55.70;33.80;;;;;;;12.59;66.98;98422.31;232247;201;138181;-57
2024/03/01 17:06:09;;;;;;;56.10;34.10;;;;;;;12.51;67.04;98421.84;232232;204;138234;-58
2024/03/01 17:11:13;;;;;;;52.80;34.00;;;;;;;12.42;67.31;98427.90;231687;198;153744;-57
2024/03/01 17:16:25;;;;;;;51.90;31.30;;;;;;;12.36;67.82;98421.52;232133;204;138357;-58
2024/03/01 17:21:30;;;;;;;50.90;31.00;;;;;;;12.32;68.17;98419.31;232155;204;138691;-56
2024/03/01 17:26:33;;;;;;;55.30;32.20;;;;;;;12.30;68.49;98420.14;232181;201;153992;-56
2024/03/01 17:31:36;;;;;;;102.50;63.60;;;;;;;12.34;68.94;98420.40;232055;201;138003;-56
2024/03/01 17:36:40;;;;;;;53.80;32.70;;;;;;;12.35;68.78;98423.86;232028;199;138722;-57
2024/03/01 17:41:43;;;;;;;55.80;34.30;;;;;;;12.30;68.73;98429.02;232179;204;153941;-55
2024/03/01 17:46:47;;;;;;;54.20;34.00;;;;;;;12.24;68.78;98425.94;231991;197;139443;-56
2024/03/01 17:51:50;;;;;;;53.40;33.20;;;;;;;12.17;68.76;98427.10;232136;204;138474;-56
2024/03/01 17:56:53;;;;;;;54.30;33.30;;;;;;;12.08;68.84;98428.96;232053;196;154597;-56
2024/03/01 18:01:56;;;;;;;54.00;33.70;;;;;;;12.02;68.76;98435.11;232315;204;138633;-56
2024/03/01 18:07:01;;;;;;;54.30;33.40;;;;;;;11.99;68.81;98438.79;232062;204;138319;-57
2024/03/01 18:12:05;;;;;;;52.60;32.00;;;;;;;11.91;68.94;98442.98;231952;196;154132;-57
2024/03/01 18:17:08;;;;;;;53.30;32.10;;;;;;;11.90;69.11;98444.45;232045;204;138892;-55
2024/03/01 18:22:11;;;;;;;54.30;32.50;;;;;;;11.94;69.08;98452.16;232180;197;138378;-54
2024/03/01 18:27:15;;;;;;;59.50;36.40;;;;;;;11.96;68.88;98450.20;232218;204;153853;-56
2024/03/01 18:32:18;;;;;;;58.50;34.20;;;;;;;11.96;68.85;98446.13;232311;204;138912;-56
2024/03/01 18:37:21;;;;;;;57.10;33.40;;;;;;;11.97;68.79;98447.99;232197;201;138403;-56
2024/03/01 18:42:24;;;;;;;59.60;35.10;;;;;;;11.89;68.64;98448.81;232156;196;154284;-55
2024/03/01 18:47:28;;;;;;;56.80;33.30;;;;;;;11.80;68.69;98442.86;232077;201;138126;-55
2024/03/01 18:52:31;;;;;;;55.30;32.30;;;;;;;11.76;68.79;98443.51;232243;204;138325;-56
2024/03/01 18:57:36;;;;;;;53.20;33.70;;;;;;;11.71;68.81;98446.77;232096;204;154545;-54
2024/03/01 19:02:40;;;;;;;56.40;34.40;;;;;;;11.68;69.08;98445.41;232289;204;137500;-55
2024/03/01 19:07:44;;;;;;;51.90;31.00;;;;;;;11.65;69.21;98437.48;232154;201;138284;-56
2024/03/01 19:19:00;;;;;;;52.70;31.80;;;;;;;11.68;69.05;98438.48;231450;204;139104;-50
2024/03/01 19:24:04;;;;;;;49.80;31.70;;;;;;;11.71;68.83;98445.35;231851;198;137596;-53
2024/03/01 19:29:08;;;;;;;54.10;31.30;;;;;;;11.71;68.77;98448.92;232063;201;154605;-52
2024/03/01 19:34:11;;;;;;;60.40;34.10;;;;;;;11.69;68.76;98455.31;232108;204;138520;-50
2024/03/01 19:39:18;;;;;;;55.00;32.50;;;;;;;11.67;68.76;98454.00;232146;204;139031;-51
2024/03/01 19:44:24;;;;;;;50.70;31.70;;;;;;;11.64;68.60;98462.61;232323;201;153145;-49
2024/03/01 19:49:28;;;;;;;53.30;31.50;;;;;;;11.57;68.72;98456.68;231916;204;138264;-50
2024/03/01 19:54:32;;;;;;;53.20;33.60;;;;;;;11.53;68.72;98454.89;231973;202;138567;-55
2024/03/01 19:59:39;;;;;;;51.70;31.40;;;;;;;11.53;68.78;98458.97;232069;204;154587;-52
2024/03/01 20:04:42;;;;;;;46.00;29.40;;;;;;;11.51;68.79;98458.79;231957;201;138275;-52
2024/03/01 20:09:47;;;;;;;387.70;287.60;;;;;;;11.50;69.08;98465.73;231729;204;138647;-52
2024/03/01 20:14:51;;;;;;;64.90;42.00;;;;;;;11.70;69.25;98469.70;232200;197;153098;-54
2024/03/01 20:19:54;;;;;;;51.30;30.90;;;;;;;11.86;68.30;98471.42;231675;197;138725;-54
2024/03/01 20:25:01;;;;;;;52.40;32.10;;;;;;;11.84;68.06;98468.00;231987;198;138124;-52
2024/03/01 20:30:06;;;;;;;311.50;223.90;;;;;;;11.80;68.35;98471.46;231824;205;154350;-51
2024/03/01 20:35:09;;;;;;;52.10;33.40;;;;;;;11.78;68.43;98462.17;231792;205;138172;-53
2024/03/01 20:40:13;;;;;;;52.80;31.30;;;;;;;11.78;68.08;98458.30;231420;202;138810;-50
2024/03/01 20:45:16;;;;;;;48.20;30.20;;;;;;;11.73;67.92;98455.68;231976;202;154118;-53
2024/03/01 20:50:19;;;;;;;50.90;30.20;;;;;;;11.68;68.13;98458.39;231993;198;138760;-55
2024/03/01 20:55:25;;;;;;;48.40;30.30;;;;;;;11.62;68.21;98457.91;231759;198;141074;-56
2024/03/01 21:00:29;;;;;;;49.30;30.60;;;;;;;11.57;68.34;98444.48;231155;205;153153;-53
2024/03/01 21:05:33;;;;;;;50.80;28.60;;;;;;;11.53;68.44;98446.87;231835;198;138537;-54
2024/03/01 21:10:37;;;;;;;46.60;27.60;;;;;;;11.54;68.49;98452.98;231891;198;137914;-55
2024/03/01 21:15:40;;;;;;;46.40;29.40;;;;;;;11.60;68.25;98456.48;232030;205;153424;-55
2024/03/01 21:20:44;;;;;;;46.70;29.20;;;;;;;11.64;68.13;98446.45;232183;202;137568;-52
2024/03/01 21:25:47;;;;;;;46.40;30.40;;;;;;;11.62;68.13;98436.97;232062;198;138582;-52
2024/03/01 21:30:51;;;;;;;42.90;28.30;;;;;;;11.58;68.07;98443.42;231948;202;152957;-54
2024/03/01 21:35:54;;;;;;;47.20;28.70;;;;;;;11.52;68.17;98449.63;231692;197;139110;-55
2024/03/01 21:40:57;;;;;;;43.30;29.00;;;;;;;11.46;68.10;98447.19;231957;205;138590;-55
2024/03/01 21:46:01;;;;;;;48.40;28.60;;;;;;;11.40;68.10;98450.90;231542;198;154031;-54
2024/03/01 21:51:04;;;;;;;48.80;29.30;;;;;;;11.30;68.23;98440.05;231929;198;137478;-55
2024/03/01 21:56:07;;;;;;;47.10;28.70;;;;;;;11.23;68.35;98439.22;232138;202;137740;-51
2024/03/01 22:01:11;;;;;;;48.60;30.60;;;;;;;11.16;68.64;98448.97;231928;202;153813;-51
2024/03/01 22:06:14;;;;;;;52.50;28.90;;;;;;;11.15;68.75;98453.83;231884;197;139982;-53
2024/03/01 22:11:18;;;;;;;48.40;28.50;;;;;;;11.15;68.80;98448.68;231896;198;138794;-54
2024/03/01 22:16:22;;;;;;;47.20;29.30;;;;;;;11.13;68.79;98434.58;231936;197;153791;-53
2024/03/01 22:21:25;;;;;;;44.60;28.30;;;;;;;11.10;68.72;98434.97;231975;201;137388;-53
2024/03/01 22:26:29;;;;;;;48.80;29.30;;;;;;;11.07;68.75;98430.98;232104;202;138027;-53
2024/03/01 22:31:32;;;;;;;47.30;28.40;;;;;;;11.01;68.73;98416.86;231983;198;153329;-54
2024/03/01 22:36:35;;;;;;;50.00;29.40;;;;;;;10.94;68.75;98431.55;231890;205;138447;-53
2024/03/01 22:41:38;;;;;;;47.10;29.70;;;;;;;10.88;68.79;98431.27;231453;201;137803;-50
2024/03/01 22:46:42;;;;;;;46.50;29.00;;;;;;;10.80;68.94;98437.34;231612;205;153111;-53
2024/03/01 22:51:47;;;;;;;47.70;29.00;;;;;;;10.74;69.16;98438.67;231766;202;138992;-55
2024/03/01 22:56:52;;;;;;;48.00;28.30;;;;;;;10.66;69.22;98441.56;231707;198;138643;-55
2024/03/01 23:01:55;;;;;;;47.70;28.40;;;;;;;10.59;69.24;98446.14;231581;198;155139;-57
2024/03/01 23:07:07;;;;;;;46.30;28.50;;;;;;;10.51;69.44;98438.56;231976;205;138437;-51
2024/03/01 23:12:11;;;;;;;47.90;28.30;;;;;;;10.43;69.56;98437.39;230829;204;138666;-52
2024/03/01 23:17:15;;;;;;;46.10;27.00;;;;;;;10.37;69.71;98441.14;231660;204;153350;-52
2024/03/01 23:22:23;;;;;;;47.40;26.80;;;;;;;10.35;69.79;98431.56;230480;205;139817;-52
2024/03/01 23:27:27;;;;;;;46.90;27.00;;;;;;;10.38;69.78;98429.74;231049;202;138921;-51